Time;durP1;ratioP1;P1;durP2;ratioP2;P2;SDS_P1;SDS_P2;PMS_P1;PMS_P2;Temp;Humidity;BMP_temperature;BMP_pressure;BME280_temperature;BME280_humidity;BME280_pressure;Samples;Min_cycle;Max_cycle;Signal;HPM_P1;HPM_P2
2021/04/02 00:01:35;;;;;;;6.30;3.88;;;11.70;99.90;;;;;;20977639;28;20067;-79
2021/04/02 00:11:36;;;;;;;10.07;3.92;;;11.80;99.90;;;;;;21009870;28;20099;-76
2021/04/02 00:21:36;;;;;;;7.85;4.35;;;11.80;99.90;;;;;;20980622;28;20031;-79
2021/04/02 00:31:37;;;;;;;12.15;4.30;;;11.70;99.90;;;;;;20978318;28;20025;-79
2021/04/02 00:41:38;;;;;;;7.72;3.65;;;11.30;99.90;;;;;;20986055;28;20020;-79
2021/04/02 00:51:39;;;;;;;5.68;3.83;;;10.60;99.90;;;;;;20983685;28;20029;-79
2021/04/02 01:01:41;;;;;;;9.73;4.35;;;10.60;99.90;;;;;;20985316;28;20025;-79
2021/04/02 01:11:43;;;;;;;8.63;4.07;;;10.40;99.90;;;;;;20991248;28;20032;-78
2021/04/02 01:21:49;;;;;;;13.10;4.55;;;10.20;99.90;;;;;;21016535;28;20063;-77
2021/04/02 01:31:58;;;;;;;14.02;5.45;;;10.60;99.90;;;;;;21022362;28;20082;-79
2021/04/02 01:42:00;;;;;;;16.50;5.07;;;10.30;99.90;;;;;;21017674;28;20058;-78
2021/04/02 01:52:02;;;;;;;15.55;4.85;;;10.30;99.90;;;;;;21024507;28;20036;-79
2021/04/02 02:02:06;;;;;;;14.05;5.70;;;10.30;99.90;;;;;;21030359;28;20568;-78
2021/04/02 02:12:11;;;;;;;15.32;5.55;;;10.10;99.90;;;;;;21013835;28;20039;-78
2021/04/02 02:22:19;;;;;;;13.48;5.65;;;9.50;99.90;;;;;;21028975;28;20024;-78
2021/04/02 02:32:43;;;;;;;14.57;6.07;;;9.30;99.90;;;;;;21022578;28;20044;-78
2021/04/02 02:42:47;;;;;;;14.70;5.45;;;9.10;99.90;;;;;;21021878;28;20109;-78
2021/04/02 02:52:50;;;;;;;16.27;6.55;;;9.40;99.90;;;;;;21013440;23;20382;-77
2021/04/02 03:02:57;;;;;;;14.30;5.97;;;9.10;99.90;;;;;;21022268;28;20078;-78
2021/04/02 03:12:59;;;;;;;15.10;5.82;;;8.60;99.90;;;;;;21019858;28;20028;-77
2021/04/02 03:23:01;;;;;;;19.85;5.55;;;8.60;99.90;;;;;;21009954;28;20036;-78
2021/04/02 03:33:15;;;;;;;15.10;6.55;;;8.60;99.90;;;;;;20992316;28;20040;-78
2021/04/02 03:43:25;;;;;;;9.88;5.38;;;8.40;99.90;;;;;;21006543;28;20028;-78
2021/04/02 03:53:44;;;;;;;11.77;6.20;;;8.20;99.90;;;;;;21005733;28;20032;-77
2021/04/02 04:03:49;;;;;;;7.85;5.07;;;8.30;99.90;;;;;;21009208;28;20090;-79
2021/04/02 04:13:55;;;;;;;17.95;6.72;;;8.40;99.90;;;;;;21008505;28;20029;-79
2021/04/02 04:23:59;;;;;;;15.10;6.70;;;7.70;99.90;;;;;;20986317;28;20028;-77
2021/04/02 04:34:02;;;;;;;19.08;6.95;;;7.80;99.90;;;;;;21003389;28;20444;-78
2021/04/02 04:44:07;;;;;;;12.75;7.25;;;7.80;99.90;;;;;;20983574;28;20025;-79
2021/04/02 04:54:09;;;;;;;13.32;7.03;;;7.40;99.90;;;;;;21019122;28;20037;-79
2021/04/02 05:04:12;;;;;;;13.70;7.13;;;7.30;99.90;;;;;;20949313;28;20428;-78
2021/04/02 05:14:14;;;;;;;15.15;6.47;;;7.40;99.90;;;;;;20841366;28;20034;-79
2021/04/02 05:24:15;;;;;;;16.08;7.43;;;7.40;99.90;;;;;;20837935;28;20037;-77
2021/04/02 05:34:16;;;;;;;18.10;7.27;;;7.20;99.90;;;;;;20845104;28;20047;-78
2021/04/02 05:44:29;;;;;;;19.03;7.20;;;7.30;99.90;;;;;;20837805;28;20661;-78
2021/04/02 05:54:34;;;;;;;18.52;7.40;;;7.40;99.90;;;;;;20836764;28;20040;-78
2021/04/02 06:04:36;;;;;;;17.63;8.35;;;7.50;99.90;;;;;;20834440;28;20036;-78
2021/04/02 06:14:36;;;;;;;;;;;7.70;99.90;;;;;;20834239;28;20558;-77
2021/04/02 06:24:42;;;;;;;22.00;7.53;;;8.30;99.90;;;;;;20836995;28;19913;-78
2021/04/02 06:34:48;;;;;;;11.93;5.03;;;9.10;99.90;;;;;;20853552;28;20037;-80
2021/04/02 06:44:58;;;;;;;19.50;7.68;;;10.00;99.90;;;;;;20855000;28;20036;-80
2021/04/02 06:55:00;;;;;;;45.75;14.70;;;10.90;99.90;;;;;;20851636;28;20072;-84
2021/04/02 07:05:01;;;;;;;31.10;14.32;;;10.50;99.90;;;;;;20849967;28;20065;-82
2021/04/02 07:15:02;;;;;;;34.17;14.97;;;10.90;99.90;;;;;;20851528;28;20038;-82
2021/04/02 07:25:04;;;;;;;41.83;19.40;;;11.40;99.90;;;;;;20832197;28;20395;-82
2021/04/02 07:35:05;;;;;;;42.60;19.73;;;11.90;99.90;;;;;;20848622;28;20034;-79
2021/04/02 07:45:07;;;;;;;47.92;23.85;;;12.20;99.90;;;;;;20848449;28;20029;-80
2021/04/02 07:55:08;;;;;;;;;;;12.40;99.90;;;;;;20847827;28;20474;-82
2021/04/02 08:05:16;;;;;;;60.67;28.83;;;13.20;99.90;;;;;;20825841;28;20008;-83
2021/04/02 08:15:19;;;;;;;53.97;28.92;;;13.40;99.90;;;;;;20823182;28;20516;-82
2021/04/02 08:25:22;;;;;;;61.38;29.88;;;13.60;99.90;;;;;;20846011;28;20025;-81
2021/04/02 08:35:23;;;;;;;52.78;27.75;;;13.70;99.90;;;;;;20846980;28;20033;-78
2021/04/02 08:45:24;;;;;;;61.63;28.45;;;14.80;99.90;;;;;;20833402;28;20144;-78
2021/04/02 08:55:26;;;;;;;45.97;23.90;;;13.70;99.90;;;;;;20949913;23;20489;-78
2021/04/02 09:05:27;;;;;;;46.88;23.83;;;14.50;99.90;;;;;;20946631;28;20064;-77
2021/04/02 09:15:31;;;;;;;43.50;23.20;;;14.60;99.90;;;;;;20957044;28;20556;-77
2021/04/02 09:25:32;;;;;;;47.15;23.15;;;15.30;99.90;;;;;;20974375;28;20469;-79
2021/04/02 09:35:34;;;;;;;50.63;24.23;;;15.50;99.90;;;;;;20943257;28;20025;-78
2021/04/02 09:45:34;;;;;;;;;;;15.80;99.90;;;;;;20953980;28;20021;-78
2021/04/02 09:55:35;;;;;;;51.28;23.40;;;16.10;99.90;;;;;;20958563;28;19916;-78
2021/04/02 10:05:36;;;;;;;49.65;23.77;;;16.30;99.90;;;;;;20989583;28;20044;-78
2021/04/02 10:15:37;;;;;;;44.47;22.70;;;16.40;99.90;;;;;;20963408;28;20491;-78
2021/04/02 10:25:38;;;;;;;41.30;19.63;;;16.90;99.90;;;;;;20972313;28;20056;-79
2021/04/02 10:35:38;;;;;;;37.55;18.15;;;16.80;99.90;;;;;;20884844;28;20029;-78
2021/04/02 10:45:40;;;;;;;35.57;18.47;;;17.10;99.90;;;;;;20902668;28;20029;-78
2021/04/02 10:55:42;;;;;;;29.73;16.97;;;17.00;99.90;;;;;;20892852;28;20403;-79
2021/04/02 11:05:43;;;;;;;;;;;17.00;99.90;;;;;;20918187;28;20029;-78
2021/04/02 11:15:43;;;;;;;26.58;13.75;;;17.50;99.90;;;;;;20950593;28;19964;-78
2021/04/02 11:25:45;;;;;;;22.90;11.67;;;17.20;99.90;;;;;;20986218;28;20025;-78
2021/04/02 11:35:46;;;;;;;27.70;11.93;;;17.40;99.90;;;;;;20968011;28;20028;-79
2021/04/02 11:45:47;;;;;;;27.77;12.73;;;17.40;99.90;;;;;;20910281;28;20044;-79
2021/04/02 11:55:48;;;;;;;23.67;12.35;;;17.20;99.90;;;;;;20845616;28;20145;-80
2021/04/02 12:05:49;;;;;;;28.17;11.67;;;17.70;99.90;;;;;;20832927;28;20087;-80
2021/04/02 12:15:50;;;;;;;24.13;12.40;;;17.80;99.90;;;;;;20927223;28;20059;-79
2021/04/02 12:25:51;;;;;;;30.30;12.63;;;17.50;99.90;;;;;;20894931;28;20036;-82
2021/04/02 12:35:52;;;;;;;35.75;12.10;;;17.20;99.90;;;;;;20926050;28;20025;-81
2021/04/02 12:45:52;;;;;;;29.93;14.83;;;17.30;99.90;;;;;;20949515;28;20558;-81
2021/04/02 12:55:58;;;;;;;25.50;13.23;;;16.90;99.90;;;;;;20943780;28;20047;-81
2021/04/02 13:05:59;;;;;;;28.30;14.52;;;17.10;99.90;;;;;;20933672;28;20036;-82
2021/04/02 13:16:00;;;;;;;30.35;15.63;;;17.00;99.90;;;;;;20929374;28;20048;-83
2021/04/02 13:26:01;;;;;;;31.83;13.38;;;16.80;99.90;;;;;;20932549;28;20040;-84
2021/04/02 13:36:02;;;;;;;26.05;12.27;;;16.70;99.90;;;;;;20908343;28;20041;-80
2021/04/02 13:46:03;;;;;;;28.63;11.90;;;16.80;99.90;;;;;;20893547;28;20044;-79
2021/04/02 13:56:04;;;;;;;20.38;10.30;;;16.90;99.90;;;;;;20908861;28;20043;-81
2021/04/02 14:06:05;;;;;;;27.23;9.50;;;17.80;99.90;;;;;;20906718;28;20547;-78
2021/04/02 14:16:06;;;;;;;21.00;9.43;;;17.90;99.90;;;;;;20901836;28;20555;-76
2021/04/02 14:26:07;;;;;;;16.02;7.85;;;17.90;99.90;;;;;;20887364;28;20029;-77
2021/04/02 14:36:08;;;;;;;22.95;8.75;;;17.90;99.90;;;;;;20892656;28;20043;-76
2021/04/02 14:46:08;;;;;;;18.00;8.03;;;17.60;99.90;;;;;;20902094;28;20449;-77
2021/04/02 14:56:09;;;;;;;21.55;8.90;;;18.10;99.90;;;;;;20964843;23;20064;-78
2021/04/02 15:06:13;;;;;;;24.53;9.40;;;17.50;99.90;;;;;;20905427;28;20029;-78
2021/04/02 15:16:14;;;;;;;15.00;9.13;;;17.90;99.90;;;;;;20898673;28;20048;-78
2021/04/02 15:26:15;;;;;;;18.67;7.60;;;18.40;99.90;;;;;;20878803;28;20032;-79
2021/04/02 15:36:16;;;;;;;22.23;5.88;;;18.50;99.90;;;;;;20866136;28;20107;-80
2021/04/02 15:46:17;;;;;;;19.58;6.03;;;18.20;99.90;;;;;;20907772;28;20351;-80
2021/04/02 15:56:18;;;;;;;16.83;5.45;;;18.00;99.90;;;;;;20907851;28;20437;-79
2021/04/02 16:06:19;;;;;;;8.43;4.10;;;17.80;99.90;;;;;;20895542;28;20041;-77
2021/04/02 16:16:22;;;;;;;9.40;3.77;;;17.20;99.90;;;;;;20906218;28;20037;-77
2021/04/02 16:26:23;;;;;;;13.82;4.72;;;16.90;99.90;;;;;;20907686;28;20067;-77
2021/04/02 16:36:25;;;;;;;6.57;3.67;;;16.80;99.90;;;;;;20875997;28;20078;-76
2021/04/02 16:46:31;;;;;;;15.07;4.72;;;16.70;99.90;;;;;;20849750;28;20036;-77
2021/04/02 16:56:32;;;;;;;9.43;2.67;;;16.50;99.90;;;;;;20836671;28;20052;-77
2021/04/02 17:06:33;;;;;;;2.35;1.80;;;16.30;99.90;;;;;;20830605;28;20061;-76
2021/04/02 17:16:34;;;;;;;6.03;2.75;;;16.00;99.90;;;;;;20846957;28;20488;-77
2021/04/02 17:26:36;;;;;;;4.13;2.27;;;15.60;99.90;;;;;;20829597;28;20042;-77
2021/04/02 17:36:37;;;;;;;6.73;2.20;;;15.30;99.90;;;;;;20807375;28;20579;-77
2021/04/02 17:46:37;;;;;;;3.35;1.98;;;14.90;99.90;;;;;;20826524;28;20070;-77
2021/04/02 17:56:38;;;;;;;3.25;1.88;;;14.60;99.90;;;;;;20878167;28;20037;-78
2021/04/02 18:06:39;;;;;;;4.78;2.00;;;14.20;99.90;;;;;;20840063;28;20029;-78
2021/04/02 18:16:40;;;;;;;12.73;2.20;;;13.90;99.90;;;;;;20853110;28;20039;-77
2021/04/02 18:26:41;;;;;;;9.20;2.25;;;13.50;99.90;;;;;;20841321;28;20033;-77
2021/04/02 18:36:45;;;;;;;3.67;2.53;;;13.40;99.90;;;;;;20843978;28;20033;-77
2021/04/02 18:46:49;;;;;;;10.57;5.15;;;13.40;99.90;;;;;;20883973;28;20360;-77
2021/04/02 18:56:52;;;;;;;4.53;2.10;;;13.10;99.90;;;;;;20842459;28;20108;-78
2021/04/02 19:06:52;;;;;;;;;;;13.00;99.90;;;;;;20848860;28;20076;-77
2021/04/02 19:16:53;;;;;;;7.05;3.30;;;12.60;99.90;;;;;;20896151;28;19912;-78
2021/04/02 19:26:54;;;;;;;5.03;3.33;;;12.40;99.90;;;;;;20902438;28;20033;-79
2021/04/02 19:36:55;;;;;;;10.77;4.10;;;11.90;99.90;;;;;;20899763;28;20041;-77
2021/04/02 19:46:56;;;;;;;5.03;3.28;;;10.90;99.90;;;;;;20900747;28;20069;-77
2021/04/02 19:56:59;;;;;;;3.38;2.50;;;11.10;99.90;;;;;;20880059;28;20033;-78
2021/04/02 20:07:00;;;;;;;4.53;3.13;;;10.30;99.90;;;;;;20862535;28;20028;-78
2021/04/02 20:17:01;;;;;;;8.23;4.03;;;10.50;99.90;;;;;;20859812;28;20051;-78
2021/04/02 20:27:02;;;;;;;6.22;3.40;;;10.00;99.90;;;;;;20872744;28;20068;-78
2021/04/02 20:37:03;;;;;;;9.00;4.57;;;9.90;99.90;;;;;;20871255;28;20037;-78
2021/04/02 20:47:04;;;;;;;7.07;4.87;;;9.80;99.90;;;;;;20871950;28;20399;-78
2021/04/02 20:57:05;;;;;;;11.20;5.80;;;10.20;99.90;;;;;;20870999;28;20415;-78
2021/04/02 21:07:07;;;;;;;9.73;5.97;;;10.00;99.90;;;;;;20920020;22;20475;-76
2021/04/02 21:17:08;;;;;;;7.73;5.40;;;9.70;99.90;;;;;;20867781;28;20444;-76
2021/04/02 21:27:08;;;;;;;11.60;6.27;;;9.30;99.90;;;;;;20829156;28;20041;-75
2021/04/02 21:37:10;;;;;;;11.80;7.13;;;9.20;99.90;;;;;;20847829;28;20590;-76
2021/04/02 21:47:12;;;;;;;13.77;6.57;;;8.80;99.90;;;;;;20906519;28;20544;-76
2021/04/02 21:57:13;;;;;;;11.25;6.97;;;8.60;99.90;;;;;;20892200;28;20713;-76
2021/04/02 22:07:14;;;;;;;13.43;7.40;;;8.30;99.90;;;;;;20878274;28;20087;-77
2021/04/02 22:17:15;;;;;;;10.23;5.73;;;8.00;99.90;;;;;;20828081;28;20056;-77
2021/04/02 22:27:16;;;;;;;12.97;6.97;;;7.40;99.90;;;;;;20838049;28;20032;-77
2021/04/02 22:37:17;;;;;;;12.83;6.17;;;7.50;99.90;;;;;;20848636;28;20586;-77
2021/04/02 22:47:18;;;;;;;9.17;4.70;;;7.80;99.90;;;;;;20901870;28;20064;-78
2021/04/02 22:57:19;;;;;;;13.80;5.43;;;7.90;99.90;;;;;;20865387;28;20087;-76
2021/04/02 23:07:20;;;;;;;8.63;5.23;;;8.10;99.90;;;;;;20838736;28;20025;-76
2021/04/02 23:17:21;;;;;;;9.00;4.37;;;7.90;99.90;;;;;;20821126;28;20030;-75
2021/04/02 23:27:22;;;;;;;5.77;3.40;;;7.80;99.90;;;;;;20818720;28;20128;-73
2021/04/02 23:37:23;;;;;;;7.60;5.00;;;7.60;99.90;;;;;;20821506;28;20045;-77
2021/04/02 23:47:27;;;;;;;14.13;6.03;;;7.30;99.90;;;;;;20820491;28;20511;-76
2021/04/02 23:57:28;;;;;;;10.55;5.55;;;6.70;99.90;;;;;;20841515;28;20120;-74
